Time;durP1;ratioP1;P1;durP2;ratioP2;P2;SDS_P1;SDS_P2;PMS_P1;PMS_P2;Temp;Humidity;BMP_temperature;BMP_pressure;BME280_temperature;BME280_humidity;BME280_pressure;Samples;Min_cycle;Max_cycle;Signal;HPM_P1;HPM_P2
2021/06/05 12:47:24;;;;;;;;;;;;;;;23.34;57.12;101578.84;5000638;27;1272;-72
2021/06/05 12:49:57;;;;;;;;;;;;;;;23.34;55.89;101574.38;5000889;28;1564;-70
2021/06/05 12:52:29;;;;;;;;;;;;;;;23.35;56.19;101572.53;4984516;28;1260;-70
2021/06/05 12:55:14;;;;;;;;;;;;;;;23.34;55.73;101562.88;5000331;28;1461;-70
2021/06/05 12:57:55;;;;;;;;;;;;;;;23.31;55.74;101541.81;5000678;28;1330;-68
2021/06/05 13:00:36;;;;;;;;;;;;;;;23.37;56.10;101541.41;5001726;28;1041;-67
2021/06/05 13:03:07;;;;;;;;;;;;;;;23.44;55.74;101532.09;5000224;28;1293;-69
2021/06/05 13:05:36;;;;;;;;;;;;;;;23.39;55.87;101532.41;5000100;28;1972;-69
2021/06/05 13:08:09;;;;;;;;;;;;;;;23.33;56.00;101532.78;4999951;28;1327;-70
2021/06/05 13:10:41;;;;;;;;;;;;;;;23.26;56.22;101523.47;5078902;28;1095;-70
2021/06/05 13:13:16;;;;;;;;;;;;;;;23.29;56.33;101525.94;5002597;28;1386;-68
2021/06/05 13:15:54;;;;;;;;;;;;;;;23.38;55.70;101517.38;4974716;28;1458;-66
2021/06/05 13:18:28;;;;;;;;;;;;;;;23.26;55.56;101510.19;4984261;28;1379;-67
2021/06/05 13:20:57;;;;;;;;;;;;;;;23.31;55.62;101510.78;4964981;28;1399;-67
2021/06/05 13:23:27;;;;;;;;;;;;;;;23.35;56.27;101514.06;4962448;28;1537;-67
2021/06/05 13:25:56;;;;;;;;;;;;;;;23.46;55.73;101510.75;4974129;28;1895;-68
2021/06/05 13:28:31;;;;;;;;;;;;;;;23.22;55.85;101506.00;5084405;28;1355;-68
2021/06/05 13:31:01;;;;;;;;;;;;;;;23.25;55.36;101505.84;5029201;28;1647;-67
2021/06/05 13:33:37;;;;;;;;;;;;;;;23.28;55.20;101520.75;4980423;28;1258;-68
2021/06/05 13:36:19;;;;;;;;;;;;;;;23.34;55.17;101529.19;4981972;28;1284;-71
2021/06/05 13:38:52;;;;;;;;;;;;;;;23.46;55.04;101535.53;4981568;28;850;-70
2021/06/05 13:41:20;;;;;;;;;;;;;;;23.62;55.01;101535.41;4981604;28;1281;-66
2021/06/05 13:43:48;;;;;;;;;;;;;;;23.72;54.38;101525.84;5038747;28;1277;-68
2021/06/05 13:46:17;;;;;;;;;;;;;;;23.68;54.01;101503.09;5037775;28;1926;-67
2021/06/05 13:48:44;;;;;;;;;;;;;;;23.68;53.82;101482.63;4983806;28;1529;-65
2021/06/05 13:51:12;;;;;;;;;;;;;;;23.71;53.95;101463.00;4981821;28;1368;-65
2021/06/05 13:53:45;;;;;;;;;;;;;;;23.70;54.06;101459.47;4981312;28;822;-64
2021/06/05 13:56:15;;;;;;;;;;;;;;;23.72;55.11;101478.81;4979521;28;1373;-66
2021/06/05 13:58:43;;;;;;;;;;;;;;;23.67;54.33;101469.47;4963577;28;1490;-64
2021/06/05 14:01:10;;;;;;;;;;;;;;;23.54;54.94;101453.44;4961106;28;1324;-68
2021/06/05 14:03:38;;;;;;;;;;;;;;;23.59;55.20;101447.84;4959406;28;1279;-68
2021/06/05 14:06:05;;;;;;;;;;;;;;;23.55;54.85;101447.19;4958841;28;1914;-66
2021/06/05 14:08:32;;;;;;;;;;;;;;;23.61;54.91;101448.59;4960108;28;1234;-66
2021/06/05 14:10:59;;;;;;;;;;;;;;;23.62;54.53;101456.44;4958649;28;1233;-65
2021/06/05 14:13:27;;;;;;;;;;;;;;;23.52;54.81;101443.88;4958000;28;1336;-65
2021/06/05 14:15:55;;;;;;;;;;;;;;;23.54;55.37;101431.31;4960153;28;1269;-64
2021/06/05 14:18:25;;;;;;;;;;;;;;;23.56;54.93;101429.44;4958278;28;1269;-64
2021/06/05 14:20:53;;;;;;;;;;;;;;;23.79;54.23;101423.41;4957150;28;1264;-64
2021/06/05 14:23:22;;;;;;;;;;;;;;;23.93;53.85;101424.19;4958283;28;1469;-66
2021/06/05 14:25:49;;;;;;;;;;;;;;;23.73;54.13;101427.34;4959385;28;1930;-66
2021/06/05 14:28:18;;;;;;;;;;;;;;;23.70;54.42;101437.34;4956640;28;1514;-65
2021/06/05 14:30:47;;;;;;;;;;;;;;;23.75;54.34;101432.53;4957890;28;1335;-66
2021/06/05 14:33:15;;;;;;;;;;;;;;;23.77;54.16;101422.69;4959891;28;1284;-65
2021/06/05 14:35:44;;;;;;;;;;;;;;;23.77;54.74;101430.66;4957007;28;1340;-65
2021/06/05 14:38:12;;;;;;;;;;;;;;;23.78;54.56;101437.66;4957019;28;1369;-65
2021/06/05 14:40:40;;;;;;;;;;;;;;;23.78;54.08;101450.97;4959870;28;1372;-66
2021/06/05 14:43:16;;;;;;;;;;;;;;;23.75;54.57;101446.72;4958636;28;1391;-64
2021/06/05 14:45:45;;;;;;;;;;;;;;;23.76;54.23;101436.91;4958004;28;1927;-65
2021/06/05 14:48:13;;;;;;;;;;;;;;;23.72;54.62;101430.09;4958261;28;1358;-68
2021/06/05 14:50:43;;;;;;;;;;;;;;;23.70;54.55;101432.88;4959947;28;1157;-67
2021/06/05 14:53:10;;;;;;;;;;;;;;;23.74;54.18;101425.53;4959145;28;1386;-66
2021/06/05 14:55:38;;;;;;;;;;;;;;;23.81;53.90;101419.69;4957882;28;1205;-66
2021/06/05 14:58:04;;;;;;;;;;;;;;;23.78;53.95;101409.25;4958000;28;1552;-65
2021/06/05 15:00:31;;;;;;;;;;;;;;;23.83;53.57;101407.13;4959408;28;1115;-65
2021/06/05 15:02:58;;;;;;;;;;;;;;;23.77;53.92;101401.41;4956469;28;1261;-65
2021/06/05 15:05:29;;;;;;;;;;;;;;;23.77;53.44;101396.06;4959293;28;1295;-64
2021/06/05 15:07:55;;;;;;;;;;;;;;;23.79;53.52;101391.50;4959623;28;1328;-64
2021/06/05 15:10:23;;;;;;;;;;;;;;;23.79;53.40;101391.50;4955938;28;1261;-65
2021/06/05 15:12:49;;;;;;;;;;;;;;;23.76;53.39;101389.03;4958428;28;1269;-66
2021/06/05 15:15:17;;;;;;;;;;;;;;;23.69;53.58;101382.41;4959162;28;1291;-65
2021/06/05 15:17:44;;;;;;;;;;;;;;;23.66;53.47;101372.00;4956205;28;1374;-65
2021/06/05 15:20:13;;;;;;;;;;;;;;;23.67;53.60;101371.91;4956594;28;1264;-65
2021/06/05 15:22:40;;;;;;;;;;;;;;;23.69;53.66;101377.09;4959041;28;1268;-65
2021/06/05 15:25:08;;;;;;;;;;;;;;;23.66;53.57;101377.31;4958015;28;1233;-65
2021/06/05 15:27:35;;;;;;;;;;;;;;;23.71;53.35;101385.84;4957356;28;1985;-66
2021/06/05 15:30:02;;;;;;;;;;;;;;;23.75;53.46;101382.00;4958431;28;1547;-66
2021/06/05 15:32:29;;;;;;;;;;;;;;;23.72;53.24;101383.06;4956624;28;1363;-65
2021/06/05 15:34:56;;;;;;;;;;;;;;;23.75;53.10;101390.00;4959098;28;1210;-66
2021/06/05 15:37:22;;;;;;;;;;;;;;;23.73;53.29;101389.25;4957380;28;1248;-66
2021/06/05 15:39:49;;;;;;;;;;;;;;;23.78;52.99;101387.13;4959383;28;1177;-66
2021/06/05 15:42:16;;;;;;;;;;;;;;;23.78;53.46;101387.97;4957810;28;1304;-63
2021/06/05 15:44:42;;;;;;;;;;;;;;;23.75;53.04;101387.31;4971938;28;1749;-65
2021/06/05 15:47:29;;;;;;;;;;;;;;;23.75;53.07;101387.31;4957437;28;1944;-64
2021/06/05 15:49:56;;;;;;;;;;;;;;;23.80;53.04;101383.38;4957881;28;1198;-62
2021/06/05 15:52:23;;;;;;;;;;;;;;;23.76;54.74;101373.06;4958818;28;1277;-64
2021/06/05 15:54:50;;;;;;;;;;;;;;;23.72;52.96;101376.88;4955290;28;1210;-64
2021/06/05 15:57:17;;;;;;;;;;;;;;;23.71;52.86;101375.22;4955482;28;1296;-64
2021/06/05 15:59:44;;;;;;;;;;;;;;;23.67;52.47;101379.03;4957083;28;1233;-63
2021/06/05 16:02:10;;;;;;;;;;;;;;;23.61;52.39;101395.41;4957957;28;1400;-65
2021/06/05 16:04:38;;;;;;;;;;;;;;;23.71;51.49;101391.16;4952397;28;1130;-64
2021/06/05 16:07:05;;;;;;;;;;;;;;;23.74;53.44;101383.81;4983762;28;1981;-64
2021/06/05 16:09:32;;;;;;;;;;;;;;;23.64;51.49;101376.56;4983189;28;1156;-64
2021/06/05 16:11:59;;;;;;;;;;;;;;;23.64;51.79;101381.88;4984108;28;1296;-63
2021/06/05 16:14:26;;;;;;;;;;;;;;;23.64;51.71;101384.56;4983886;28;1265;-66
2021/06/05 16:16:52;;;;;;;;;;;;;;;23.53;51.91;101387.09;4984384;28;1417;-65
2021/06/05 16:19:20;;;;;;;;;;;;;;;23.38;52.07;101384.44;4968203;28;1498;-65
2021/06/05 16:21:47;;;;;;;;;;;;;;;23.47;52.27;101388.31;4983151;28;1275;-65
2021/06/05 16:24:19;;;;;;;;;;;;;;;23.43;51.95;101383.34;4984249;28;1263;-65
2021/06/05 16:26:47;;;;;;;;;;;;;;;23.39;52.23;101380.88;4985250;28;1997;-66
2021/06/05 16:29:14;;;;;;;;;;;;;;;23.39;52.10;101380.03;4967651;28;1242;-67
2021/06/05 16:31:41;;;;;;;;;;;;;;;23.37;52.46;101377.44;4970838;28;1264;-67
2021/06/05 16:34:09;;;;;;;;;;;;;;;23.34;53.08;101380.31;4985075;28;1203;-66
2021/06/05 16:36:35;;;;;;;;;;;;;;;23.29;52.50;101360.28;4985257;28;1352;-67
2021/06/05 16:39:04;;;;;;;;;;;;;;;23.36;53.17;101372.22;4985220;28;1164;-66
2021/06/05 16:41:32;;;;;;;;;;;;;;;23.37;52.49;101364.16;4984115;28;1367;-67
2021/06/05 16:43:58;;;;;;;;;;;;;;;23.37;51.64;101356.19;4952302;28;1194;-65
2021/06/05 16:46:25;;;;;;;;;;;;;;;23.29;51.89;101355.81;4984655;28;1992;-65
2021/06/05 16:48:52;;;;;;;;;;;;;;;23.33;51.89;101353.81;4985452;28;1187;-65
2021/06/05 16:51:22;;;;;;;;;;;;;;;23.26;51.88;101345.38;4985122;28;1390;-65
2021/06/05 16:53:50;;;;;;;;;;;;;;;23.26;51.93;101348.03;4983327;28;1069;-66
2021/06/05 16:56:18;;;;;;;;;;;;;;;23.23;51.86;101342.94;4985008;28;1280;-65
2021/06/05 16:58:47;;;;;;;;;;;;;;;23.25;51.78;101345.50;4983401;28;1842;-67
2021/06/05 17:01:15;;;;;;;;;;;;;;;23.26;52.17;101348.03;4983236;28;1364;-66
2021/06/05 17:03:42;;;;;;;;;;;;;;;23.27;51.93;101347.09;4967197;28;1257;-65
2021/06/05 17:06:09;;;;;;;;;;;;;;;23.27;52.47;101339.13;4985007;28;1987;-65
2021/06/05 17:08:39;;;;;;;;;;;;;;;23.31;52.06;101342.44;4979923;28;1356;-68
2021/06/05 17:11:06;;;;;;;;;;;;;;;23.28;52.31;101345.31;4953658;28;1382;-67
2021/06/05 17:13:35;;;;;;;;;;;;;;;23.31;51.79;101345.94;5022022;28;1086;-65
2021/06/05 17:16:04;;;;;;;;;;;;;;;23.31;52.47;101353.94;4982800;28;1315;-66
2021/06/05 17:18:49;;;;;;;;;;;;;;;23.31;52.07;101347.75;4963670;28;1331;-68
2021/06/05 17:21:23;;;;;;;;;;;;;;;23.29;52.02;101350.50;4963480;28;1406;-66
2021/06/05 17:23:55;;;;;;;;;;;;;;;23.28;51.94;101346.16;4958357;28;1411;-66
2021/06/05 17:26:27;;;;;;;;;;;;;;;23.29;51.70;101347.84;4963739;28;1994;-68
2021/06/05 17:28:57;;;;;;;;;;;;;;;23.34;52.80;101353.72;4946849;28;1471;-67
2021/06/05 17:31:24;;;;;;;;;;;;;;;23.39;52.74;101364.06;4946548;28;1445;-67
2021/06/05 17:33:52;;;;;;;;;;;;;;;23.41;53.27;101371.97;4967870;28;815;-71
2021/06/05 17:36:19;;;;;;;;;;;;;;;23.45;53.91;101368.13;4968636;28;1284;-70
2021/06/05 17:38:46;;;;;;;;;;;;;;;23.46;55.69;101362.72;4969112;28;846;-67
2021/06/05 17:41:17;;;;;;;;;;;;;;;23.48;54.84;101362.59;4969862;28;1300;-68
2021/06/05 17:43:44;;;;;;;;;;;;;;;23.46;53.97;101352.06;4969755;28;830;-71
2021/06/05 17:46:11;;;;;;;;;;;;;;;23.46;53.64;101351.22;4969670;28;1319;-70
2021/06/05 17:48:39;;;;;;;;;;;;;;;23.46;53.61;101337.94;4969779;28;845;-69
2021/06/05 17:51:08;;;;;;;;;;;;;;;23.46;53.55;101328.16;4969632;28;1260;-70
2021/06/05 17:53:40;;;;;;;;;;;;;;;23.46;52.93;101321.97;4967931;28;1411;-69
2021/06/05 17:56:09;;;;;;;;;;;;;;;23.45;52.73;101321.13;4968096;28;1652;-69
2021/06/05 17:58:41;;;;;;;;;;;;;;;23.36;52.57;101311.94;4952680;28;1278;-65
2021/06/05 18:01:10;;;;;;;;;;;;;;;23.35;52.55;101304.03;4968174;28;1344;-68
2021/06/05 18:03:45;;;;;;;;;;;;;;;23.32;52.60;101307.75;4964440;28;1810;-76
2021/06/05 18:06:14;;;;;;;;;;;;;;;23.34;52.49;101313.84;4943281;28;1847;-71
2021/06/05 18:08:40;;;;;;;;;;;;;;;23.31;52.45;101322.03;4958136;28;1910;-69
2021/06/05 18:11:08;;;;;;;;;;;;;;;23.33;52.52;101322.78;4966346;28;1346;-72
2021/06/05 18:13:39;;;;;;;;;;;;;;;23.30;52.43;101322.13;4950991;28;2070;-72
2021/06/05 18:16:08;;;;;;;;;;;;;;;23.31;52.31;101323.84;4947356;28;1311;-69
2021/06/05 18:18:36;;;;;;;;;;;;;;;23.31;52.63;101332.66;4961284;28;1515;-71
2021/06/05 18:21:06;;;;;;;;;;;;;;;23.30;52.48;101341.59;4955668;28;1849;-70
2021/06/05 18:23:34;;;;;;;;;;;;;;;23.33;52.38;101337.88;4968183;28;755;-71
2021/06/05 18:26:02;;;;;;;;;;;;;;;23.28;52.56;101343.50;4968042;28;1292;-71
2021/06/05 18:28:30;;;;;;;;;;;;;;;23.28;52.42;101350.63;4967830;28;1976;-73
2021/06/05 18:30:57;;;;;;;;;;;;;;;23.25;52.59;101351.69;4952206;28;1085;-70
2021/06/05 18:33:29;;;;;;;;;;;;;;;23.25;51.79;101354.34;4948850;28;1364;-68
2021/06/05 18:35:56;;;;;;;;;;;;;;;23.29;52.31;101353.16;4949170;28;947;-72
2021/06/05 18:38:25;;;;;;;;;;;;;;;23.27;52.05;101355.06;4955659;28;1792;-68
2021/06/05 18:40:53;;;;;;;;;;;;;;;23.29;51.94;101352.31;4958281;28;1897;-67
2021/06/05 18:43:20;;;;;;;;;;;;;;;23.31;51.94;101351.28;4967370;28;1598;-65
2021/06/05 18:45:47;;;;;;;;;;;;;;;23.28;51.30;101340.84;4967489;28;1081;-63
2021/06/05 18:48:15;;;;;;;;;;;;;;;23.28;50.97;101340.84;4968539;28;1989;-65
2021/06/05 18:50:43;;;;;;;;;;;;;;;23.30;50.75;101340.72;4965775;28;1134;-66
2021/06/05 18:53:11;;;;;;;;;;;;;;;23.30;50.65;101348.69;4963538;28;1253;-68
2021/06/05 18:55:41;;;;;;;;;;;;;;;23.30;50.72;101352.22;4964063;28;1294;-67
2021/06/05 18:58:08;;;;;;;;;;;;;;;23.33;50.65;101359.97;4964553;28;1470;-66
2021/06/05 19:00:35;;;;;;;;;;;;;;;23.35;50.45;101363.38;4965488;28;1013;-69
2021/06/05 19:03:02;;;;;;;;;;;;;;;23.37;50.47;101361.50;4964980;28;1304;-70
2021/06/05 19:05:32;;;;;;;;;;;;;;;23.37;50.28;101368.63;4966414;28;1187;-70
2021/06/05 19:08:00;;;;;;;;;;;;;;;23.34;50.68;101371.47;4962657;28;1918;-70
2021/06/05 19:10:29;;;;;;;;;;;;;;;23.36;50.72;101374.88;4965655;28;1048;-70
2021/06/05 19:12:58;;;;;;;;;;;;;;;23.34;50.71;101376.78;4964181;28;1292;-69
2021/06/05 19:15:28;;;;;;;;;;;;;;;23.37;51.07;101377.44;4946308;28;1210;-72
2021/06/05 19:17:55;;;;;;;;;;;;;;;23.37;50.70;101372.13;4962078;28;1386;-71
2021/06/05 19:20:23;;;;;;;;;;;;;;;23.35;50.35;101365.19;4964551;28;1049;-72
2021/06/05 19:22:52;;;;;;;;;;;;;;;23.35;50.64;101366.03;4964831;28;1244;-69
2021/06/05 19:25:21;;;;;;;;;;;;;;;23.36;50.73;101374.88;4963690;28;1058;-69
2021/06/05 19:27:49;;;;;;;;;;;;;;;23.35;51.00;101370.50;4964466;28;1907;-69
2021/06/05 19:30:22;;;;;;;;;;;;;;;23.35;51.04;101373.16;4948043;28;1330;-66
2021/06/05 19:32:49;;;;;;;;;;;;;;;23.35;51.14;101376.69;4948787;28;1272;-68
2021/06/05 19:35:17;;;;;;;;;;;;;;;23.35;51.16;101379.34;4948015;28;1404;-69
2021/06/05 19:37:44;;;;;;;;;;;;;;;23.36;51.05;101381.03;4962480;28;1387;-66
2021/06/05 19:40:13;;;;;;;;;;;;;;;23.37;51.28;101388.06;4965020;28;1021;-66
2021/06/05 19:42:40;;;;;;;;;;;;;;;23.32;51.20;101384.84;4963243;28;1273;-68
2021/06/05 19:45:07;;;;;;;;;;;;;;;23.34;51.30;101395.41;4962984;28;1198;-68
2021/06/05 19:47:34;;;;;;;;;;;;;;;23.35;51.49;101397.09;4959282;28;1910;-68
2021/06/05 19:50:01;;;;;;;;;;;;;;;23.32;51.26;101411.44;4945683;28;1001;-68
2021/06/05 19:52:30;;;;;;;;;;;;;;;23.30;51.35;101410.69;4957258;28;1233;-66
2021/06/05 19:54:59;;;;;;;;;;;;;;;23.33;51.51;101407.84;4963016;28;1158;-68
2021/06/05 19:57:28;;;;;;;;;;;;;;;23.30;51.10;101401.88;4963318;28;1379;-66
2021/06/05 19:59:55;;;;;;;;;;;;;;;23.42;51.56;101400.22;4947444;28;1234;-64
2021/06/05 20:02:23;;;;;;;;;;;;;;;23.48;52.26;101399.81;4962862;28;1252;-67
2021/06/05 20:04:50;;;;;;;;;;;;;;;23.56;52.05;101411.66;4963370;28;1132;-73
2021/06/05 20:07:17;;;;;;;;;;;;;;;23.64;53.13;101412.00;4965032;28;1898;-74
2021/06/05 20:09:44;;;;;;;;;;;;;;;23.64;51.98;101416.47;4965333;28;771;-75
2021/06/05 20:12:11;;;;;;;;;;;;;;;23.66;51.99;101419.88;4966302;28;1292;-74
2021/06/05 20:14:39;;;;;;;;;;;;;;;23.66;51.49;101423.38;4966216;28;897;-75
2021/06/05 20:17:06;;;;;;;;;;;;;;;23.71;51.83;101425.75;4965136;28;1276;-69
2021/06/05 20:19:36;;;;;;;;;;;;;;;23.77;52.56;101420.00;4966205;28;1252;-67
2021/06/05 20:22:04;;;;;;;;;;;;;;;23.78;51.82;101421.69;4966667;28;1374;-71
2021/06/05 20:24:33;;;;;;;;;;;;;;;23.78;52.19;101424.34;4967967;28;821;-70
2021/06/05 20:27:00;;;;;;;;;;;;;;;23.76;52.57;101432.47;4966512;28;1969;-72
2021/06/05 20:29:29;;;;;;;;;;;;;;;23.75;52.58;101437.88;4967663;28;875;-69
2021/06/05 20:31:56;;;;;;;;;;;;;;;23.73;52.37;101451.28;4967166;28;1269;-68
2021/06/05 20:34:23;;;;;;;;;;;;;;;23.77;52.58;101449.28;4967328;28;1076;-72
2021/06/05 20:36:50;;;;;;;;;;;;;;;23.76;52.03;101442.25;4966119;28;1252;-72
2021/06/05 20:39:17;;;;;;;;;;;;;;;23.76;52.01;101445.75;4967371;28;866;-66
2021/06/05 20:41:48;;;;;;;;;;;;;;;23.71;51.43;101447.03;4960962;28;1429;-69
2021/06/05 20:44:15;;;;;;;;;;;;;;;23.63;51.39;101446.66;4953578;28;1249;-69
2021/06/05 20:46:44;;;;;;;;;;;;;;;23.59;51.53;101459.31;4952507;28;1467;-71
2021/06/05 20:49:11;;;;;;;;;;;;;;;23.60;51.57;101460.16;4957633;28;1911;-70
2021/06/05 20:51:40;;;;;;;;;;;;;;;23.55;51.45;101470.25;4955698;28;1382;-69
2021/06/05 20:54:07;;;;;;;;;;;;;;;23.59;51.68;101469.94;4948120;28;1590;-69
2021/06/05 20:56:35;;;;;;;;;;;;;;;23.56;52.10;101475.47;4952136;28;1264;-69
2021/06/05 20:59:02;;;;;;;;;;;;;;;23.46;52.10;101466.41;4967201;28;1120;-70
2021/06/05 21:01:30;;;;;;;;;;;;;;;23.48;52.38;101474.28;4966742;28;1307;-69
2021/06/05 21:03:58;;;;;;;;;;;;;;;23.45;51.78;101477.13;5022019;28;1663;-69
2021/06/05 21:06:28;;;;;;;;;;;;;;;23.40;52.29;101472.13;5068494;28;1264;-70
2021/06/05 21:08:59;;;;;;;;;;;;;;;23.39;51.99;101473.06;4977249;28;1934;-69
2021/06/05 21:11:26;;;;;;;;;;;;;;;23.33;52.02;101479.59;4992570;28;1264;-69
2021/06/05 21:13:53;;;;;;;;;;;;;;;23.33;51.80;101478.75;4969686;28;811;-70
2021/06/05 21:16:24;;;;;;;;;;;;;;;23.33;51.69;101479.59;4973468;28;1293;-70
2021/06/05 21:18:52;;;;;;;;;;;;;;;23.33;51.65;101476.94;4968805;28;916;-69
2021/06/05 21:21:19;;;;;;;;;;;;;;;23.24;51.75;101477.53;4970156;28;1292;-70
2021/06/05 21:23:47;;;;;;;;;;;;;;;23.27;51.54;101474.69;4970446;28;810;-70
2021/06/05 21:26:14;;;;;;;;;;;;;;;23.30;51.53;101476.28;4968577;28;1252;-70
2021/06/05 21:28:41;;;;;;;;;;;;;;;23.17;51.36;101470.91;4957369;28;1975;-70
2021/06/05 21:31:08;;;;;;;;;;;;;;;;;;4962807;28;1595;-70
2021/06/05 21:33:35;;;;;;;;;;;;;;;23.20;50.75;101465.41;4953063;28;1558;-69
2021/06/05 21:36:03;;;;;;;;;;;;;;;23.18;50.71;101466.44;4956995;28;1300;-69
2021/06/05 21:38:31;;;;;;;;;;;;;;;23.24;50.19;101464.25;4969494;28;814;-69
2021/06/05 21:40:58;;;;;;;;;;;;;;;23.18;50.51;101456.69;5015219;28;1274;-69
2021/06/05 21:43:30;;;;;;;;;;;;;;;23.15;50.43;101451.56;4987881;28;1164;-68
2021/06/05 21:45:59;;;;;;;;;;;;;;;23.13;50.52;101461.41;5007073;28;1463;-68
2021/06/05 21:48:28;;;;;;;;;;;;;;;23.16;50.02;101469.19;4956875;28;1914;-68
2021/06/05 21:50:58;;;;;;;;;;;;;;;23.14;50.22;101471.09;4992736;28;1229;-64
2021/06/05 21:53:26;;;;;;;;;;;;;;;23.12;50.36;101470.38;4954721;28;1237;-64
2021/06/05 21:55:54;;;;;;;;;;;;;;;23.15;50.17;101464.00;4955879;28;931;-63
2021/06/05 21:58:22;;;;;;;;;;;;;;;23.18;49.58;101467.31;4979179;28;1421;-64
2021/06/05 22:00:48;;;;;;;;;;;;;;;;;;4979658;28;1692;-65
2021/06/05 22:03:24;;;;;;;;;;;;;;;23.15;49.35;101461.34;4966841;28;1233;-64
2021/06/05 22:05:52;;;;;;;;;;;;;;;23.10;49.29;101455.47;4954573;28;1499;-64
2021/06/05 22:08:23;;;;;;;;;;;;;;;23.09;49.52;101459.94;4986027;28;1985;-63
2021/06/05 22:10:51;;;;;;;;;;;;;;;23.09;49.47;101459.94;4982954;28;1094;-64
2021/06/05 22:13:18;;;;;;;;;;;;;;;23.09;49.54;101457.28;4968168;28;1299;-64
2021/06/05 22:15:45;;;;;;;;;;;;;;;23.07;49.46;101447.69;4968353;28;1058;-63
2021/06/05 22:18:12;;;;;;;;;;;;;;;23.08;49.69;101452.03;4968197;28;1174;-62
2021/06/05 22:20:42;;;;;;;;;;;;;;;23.12;49.65;101448.25;4967758;28;1131;-63
2021/06/05 22:23:10;;;;;;;;;;;;;;;23.12;49.52;101446.44;4974173;28;1328;-64
2021/06/05 22:25:37;;;;;;;;;;;;;;;23.13;49.84;101445.47;4983916;28;1048;-63
2021/06/05 22:28:04;;;;;;;;;;;;;;;23.13;50.13;101448.13;4967995;28;1922;-64
2021/06/05 22:30:33;;;;;;;;;;;;;;;23.12;50.67;101441.13;4967960;28;1141;-64
2021/06/05 22:33:05;;;;;;;;;;;;;;;23.13;50.78;101431.34;4967755;28;1189;-64
2021/06/05 22:35:32;;;;;;;;;;;;;;;23.12;51.12;101425.19;4967640;28;1111;-65
2021/06/05 22:37:58;;;;;;;;;;;;;;;23.11;51.10;101420.81;4966734;28;1278;-66
2021/06/05 22:40:30;;;;;;;;;;;;;;;23.12;51.43;101419.88;4967633;28;1087;-65
2021/06/05 22:42:58;;;;;;;;;;;;;;;23.13;51.44;101420.72;4968349;28;1418;-65
2021/06/05 22:45:25;;;;;;;;;;;;;;;23.11;51.78;101420.81;4967600;28;1156;-65
2021/06/05 22:47:54;;;;;;;;;;;;;;;23.08;51.34;101421.00;4950823;28;1914;-65
2021/06/05 22:50:21;;;;;;;;;;;;;;;23.14;51.43;101425.06;4967367;28;1182;-65
2021/06/05 22:52:48;;;;;;;;;;;;;;;23.07;50.98;101424.59;4967723;28;1354;-66
2021/06/05 22:55:26;;;;;;;;;;;;;;;23.09;50.97;101417.41;4965923;28;1242;-66
2021/06/05 22:57:53;;;;;;;;;;;;;;;23.11;50.44;101425.25;4976905;28;1478;-65
2021/06/05 23:00:21;;;;;;;;;;;;;;;23.09;50.46;101422.72;4985372;28;1038;-65
2021/06/05 23:02:47;;;;;;;;;;;;;;;23.12;50.52;101419.88;4966403;28;1687;-66
2021/06/05 23:05:14;;;;;;;;;;;;;;;23.15;50.02;101402.88;4965829;28;972;-66
2021/06/05 23:07:42;;;;;;;;;;;;;;;23.12;49.95;101406.59;4966602;28;1974;-66
2021/06/05 23:10:09;;;;;;;;;;;;;;;23.09;50.11;101401.47;4966968;28;1073;-66
2021/06/05 23:12:35;;;;;;;;;;;;;;;23.06;49.88;101401.66;4967010;28;1374;-66
2021/06/05 23:15:03;;;;;;;;;;;;;;;23.03;49.94;101401.88;4966575;28;1186;-66
2021/06/05 23:17:30;;;;;;;;;;;;;;;23.01;50.07;101401.09;4966119;28;1237;-65
2021/06/05 23:19:57;;;;;;;;;;;;;;;23.01;50.20;101402.91;4967113;28;1095;-65
2021/06/05 23:22:23;;;;;;;;;;;;;;;23.05;49.90;101389.31;4968549;28;1354;-66
2021/06/05 23:24:50;;;;;;;;;;;;;;;23.01;50.15;101390.47;4968645;28;1189;-66
2021/06/05 23:27:17;;;;;;;;;;;;;;;23.01;49.82;101376.34;4968650;28;1268;-65
2021/06/05 23:29:44;;;;;;;;;;;;;;;22.98;49.64;101373.91;4967510;28;1983;-68
2021/06/05 23:32:11;;;;;;;;;;;;;;;23.00;49.56;101383.47;4968335;28;1284;-66
2021/06/05 23:34:38;;;;;;;;;;;;;;;23.00;49.59;101378.16;4966785;28;1149;-66
2021/06/05 23:37:04;;;;;;;;;;;;;;;23.01;49.22;101373.69;4966452;28;1329;-66
2021/06/05 23:39:31;;;;;;;;;;;;;;;23.02;49.07;101375.38;4966608;28;1215;-67
2021/06/05 23:41:58;;;;;;;;;;;;;;;23.02;48.86;101375.38;4968267;28;1382;-66
2021/06/05 23:44:25;;;;;;;;;;;;;;;23.02;49.00;101367.41;4967875;28;968;-66
2021/06/05 23:46:51;;;;;;;;;;;;;;;23.02;49.15;101365.59;4966094;28;1280;-66
2021/06/05 23:49:18;;;;;;;;;;;;;;;22.98;48.93;101364.09;4968200;28;1910;-67
2021/06/05 23:51:45;;;;;;;;;;;;;;;23.03;48.84;101361.16;4967901;28;1332;-66
2021/06/05 23:54:12;;;;;;;;;;;;;;;23.01;48.91;101358.56;4967562;28;849;-67
2021/06/05 23:56:39;;;;;;;;;;;;;;;23.02;48.90;101354.97;4968018;28;1324;-67
2021/06/05 23:59:06;;;;;;;;;;;;;;;23.00;48.59;101353.38;4966509;28;804;-67
